createdAt,value
2022-07-30T00:00:37.413Z,17.90
2022-07-30T00:01:37.498Z,17.90
2022-07-30T00:02:37.384Z,17.90
2022-07-30T00:03:37.462Z,17.91
2022-07-30T00:04:37.363Z,17.91
2022-07-30T00:05:37.473Z,17.90
2022-07-30T00:06:37.323Z,17.90
2022-07-30T00:07:37.303Z,17.90
2022-07-30T00:08:37.409Z,17.86
2022-07-30T00:09:37.319Z,17.84
2022-07-30T00:10:37.277Z,17.84
2022-07-30T00:11:37.268Z,17.82
2022-07-30T00:12:37.249Z,17.86
2022-07-30T00:13:37.239Z,17.87
2022-07-30T00:14:37.377Z,17.86
2022-07-30T00:15:37.218Z,17.84
2022-07-30T00:16:37.366Z,17.79
2022-07-30T00:17:37.215Z,17.79
2022-07-30T00:18:37.324Z,17.76
2022-07-30T00:19:37.263Z,17.76
2022-07-30T00:20:37.323Z,17.79
2022-07-30T00:21:39.193Z,17.78
2022-07-30T00:22:37.123Z,17.78
2022-07-30T00:23:37.113Z,17.78
2022-07-30T00:24:37.083Z,17.76
2022-07-30T00:25:37.223Z,17.73
2022-07-30T00:26:37.323Z,17.73
2022-07-30T00:27:37.153Z,17.73
2022-07-30T00:28:37.069Z,17.76
2022-07-30T00:29:37.019Z,17.76
2022-07-30T00:30:37.138Z,17.76
2022-07-30T00:31:36.997Z,17.78
2022-07-30T00:32:36.998Z,17.78
2022-07-30T00:33:36.970Z,17.82
2022-07-30T00:34:36.998Z,17.80
2022-07-30T00:35:37.158Z,17.82
2022-07-30T00:36:37.482Z,17.82
2022-07-30T00:37:37.157Z,17.80
2022-07-30T00:38:37.012Z,17.82
2022-07-30T00:39:36.893Z,17.82
2022-07-30T00:40:37.003Z,17.75
2022-07-30T00:41:36.933Z,17.75
2022-07-30T00:42:37.005Z,17.72
2022-07-30T00:43:36.842Z,17.73
2022-07-30T00:44:37.002Z,17.76
2022-07-30T00:45:36.925Z,17.75
2022-07-30T00:46:37.003Z,17.78
2022-07-30T00:47:36.892Z,17.78
2022-07-30T00:48:37.007Z,17.78
2022-07-30T00:49:40.259Z,17.79
2022-07-30T00:50:36.739Z,17.82
2022-07-30T00:51:36.838Z,17.78
2022-07-30T00:52:36.998Z,17.76
2022-07-30T00:53:36.765Z,17.75
2022-07-30T00:54:36.678Z,17.73
2022-07-30T00:55:36.642Z,17.75
2022-07-30T00:56:36.678Z,17.75
2022-07-30T00:57:36.840Z,17.72
2022-07-30T00:58:36.792Z,17.72
2022-07-30T00:59:36.845Z,17.75
2022-07-30T01:00:36.586Z,17.75
2022-07-30T01:01:36.655Z,17.76
2022-07-30T01:02:36.688Z,17.76
2022-07-30T01:03:36.914Z,17.76
2022-07-30T01:04:36.533Z,17.79
2022-07-30T01:05:36.517Z,17.78
2022-07-30T01:06:36.527Z,17.78
2022-07-30T01:07:36.512Z,17.78
2022-07-30T01:08:36.483Z,17.75
2022-07-30T01:09:36.597Z,17.73
2022-07-30T01:10:36.667Z,17.72
2022-07-30T01:11:36.453Z,17.71
2022-07-30T01:12:36.417Z,17.72
2022-07-30T01:13:36.528Z,17.71
2022-07-30T01:14:36.398Z,17.72
2022-07-30T01:15:36.442Z,17.73
2022-07-30T01:16:36.418Z,17.69
2022-07-30T01:17:36.349Z,17.71
2022-07-30T01:18:36.366Z,17.71
2022-07-30T01:19:36.331Z,17.75
2022-07-30T01:20:36.437Z,17.75
2022-07-30T01:21:36.312Z,17.76
2022-07-30T01:22:36.384Z,17.76
2022-07-30T01:23:36.282Z,17.73
2022-07-30T01:24:36.354Z,17.72
2022-07-30T01:25:36.332Z,17.72
2022-07-30T01:26:36.351Z,17.72
2022-07-30T01:27:36.215Z,17.75
2022-07-30T01:28:36.223Z,17.75
2022-07-30T01:29:36.217Z,17.75
2022-07-30T01:30:36.437Z,17.73
2022-07-30T01:31:36.283Z,17.76
2022-07-30T01:32:36.357Z,17.75
2022-07-30T01:33:36.200Z,17.73
2022-07-30T01:34:36.167Z,17.76
2022-07-30T01:35:36.257Z,17.69
2022-07-30T01:36:36.119Z,17.68
2022-07-30T01:37:36.099Z,17.65
2022-07-30T01:38:36.113Z,17.63
2022-07-30T01:39:36.223Z,17.65
2022-07-30T01:40:36.112Z,17.65
2022-07-30T01:41:36.034Z,17.66
2022-07-30T01:42:36.044Z,17.68
2022-07-30T01:43:36.212Z,17.65
2022-07-30T01:44:36.042Z,17.63
2022-07-30T01:45:42.392Z,17.63
2022-07-30T01:46:36.032Z,17.66
2022-07-30T01:47:35.932Z,17.66
2022-07-30T01:48:36.042Z,17.65
2022-07-30T01:49:36.188Z,17.60
2022-07-30T01:50:36.108Z,17.59
2022-07-30T01:51:37.396Z,17.65
2022-07-30T01:52:36.039Z,17.66
2022-07-30T01:53:35.884Z,17.59
2022-07-30T01:54:36.057Z,17.57
2022-07-30T01:55:35.957Z,17.59
2022-07-30T01:56:36.036Z,17.63
2022-07-30T01:57:35.918Z,17.66
2022-07-30T01:58:35.837Z,17.66
2022-07-30T01:59:35.913Z,17.68
2022-07-30T02:00:35.851Z,17.66
2022-07-30T02:01:35.853Z,17.68
2022-07-30T02:02:35.793Z,17.66
2022-07-30T02:03:35.851Z,17.69
2022-07-30T02:04:35.791Z,17.69
2022-07-30T02:05:35.882Z,17.69
2022-07-30T02:06:35.692Z,17.71
2022-07-30T02:07:35.982Z,17.73
2022-07-30T02:08:35.687Z,17.71
2022-07-30T02:09:35.649Z,17.66
2022-07-30T02:10:35.642Z,17.69
2022-07-30T02:11:35.889Z,17.72
2022-07-30T02:12:35.847Z,17.71
2022-07-30T02:13:35.647Z,17.72
2022-07-30T02:14:35.738Z,17.73
2022-07-30T02:15:35.578Z,17.73
2022-07-30T02:16:35.830Z,17.72
2022-07-30T02:17:39.531Z,17.71
2022-07-30T02:18:35.757Z,17.71
2022-07-30T02:19:35.513Z,17.73
2022-07-30T02:20:35.998Z,17.73
2022-07-30T02:21:36.554Z,17.72
2022-07-30T02:22:35.493Z,17.72
2022-07-30T02:23:35.539Z,17.72
2022-07-30T02:24:35.442Z,17.75
2022-07-30T02:25:35.584Z,17.76
2022-07-30T02:26:35.413Z,17.78
2022-07-30T02:27:35.584Z,17.78
2022-07-30T02:28:35.462Z,17.78
2022-07-30T02:29:35.559Z,17.76
2022-07-30T02:30:35.417Z,17.73
2022-07-30T02:31:35.620Z,17.72
2022-07-30T02:32:35.402Z,17.76
2022-07-30T02:33:35.627Z,17.76
2022-07-30T02:34:35.405Z,17.76
2022-07-30T02:35:35.558Z,17.73
2022-07-30T02:36:35.420Z,17.72
2022-07-30T02:37:41.139Z,17.75
2022-07-30T02:38:35.459Z,17.76
2022-07-30T02:39:35.228Z,17.73
2022-07-30T02:40:35.222Z,17.72
2022-07-30T02:41:35.252Z,17.72
2022-07-30T02:42:35.414Z,17.73
2022-07-30T02:43:36.201Z,17.73
2022-07-30T02:44:35.173Z,17.71
2022-07-30T02:45:35.263Z,17.68
2022-07-30T02:46:35.492Z,17.65
2022-07-30T02:47:35.263Z,17.65
2022-07-30T02:48:35.654Z,17.63
2022-07-30T02:49:35.263Z,17.63
2022-07-30T02:50:35.078Z,17.63
2022-07-30T02:51:35.078Z,17.60
2022-07-30T02:52:35.080Z,17.60
2022-07-30T02:53:35.118Z,17.60
2022-07-30T02:54:35.078Z,17.59
2022-07-30T02:55:35.017Z,17.59
2022-07-30T02:56:35.079Z,17.54
2022-07-30T02:57:35.239Z,17.57
2022-07-30T02:58:35.047Z,17.57
2022-07-30T02:59:34.966Z,17.54
2022-07-30T03:00:35.156Z,17.54
2022-07-30T03:01:35.291Z,17.56
2022-07-30T03:02:35.119Z,17.54
2022-07-30T03:03:34.913Z,17.54
2022-07-30T03:04:34.961Z,17.56
2022-07-30T03:05:34.921Z,17.57
2022-07-30T03:06:34.885Z,17.56
2022-07-30T03:07:34.923Z,17.54
2022-07-30T03:08:34.832Z,17.54
2022-07-30T03:09:52.014Z,17.54
2022-07-30T03:10:34.889Z,17.52
2022-07-30T03:11:34.798Z,17.49
2022-07-30T03:12:35.068Z,17.49
2022-07-30T03:13:34.938Z,17.47
2022-07-30T03:14:34.759Z,17.44
2022-07-30T03:15:34.996Z,17.44
2022-07-30T03:16:34.840Z,17.46
2022-07-30T03:17:34.708Z,17.46
2022-07-30T03:18:34.690Z,17.47
2022-07-30T03:19:34.937Z,17.46
2022-07-30T03:20:34.823Z,17.46
2022-07-30T03:21:34.653Z,17.44
2022-07-30T03:22:34.782Z,17.47
2022-07-30T03:23:34.622Z,17.47
2022-07-30T03:24:34.782Z,17.49
2022-07-30T03:25:34.674Z,17.46
2022-07-30T03:26:34.774Z,17.41
2022-07-30T03:27:34.624Z,17.41
2022-07-30T03:28:34.755Z,17.39
2022-07-30T03:29:34.603Z,17.42
2022-07-30T03:30:34.772Z,17.41
2022-07-30T03:31:36.382Z,17.42
2022-07-30T03:32:34.538Z,17.42
2022-07-30T03:33:38.737Z,17.46
2022-07-30T03:34:35.046Z,17.46
2022-07-30T03:35:34.699Z,17.46
2022-07-30T03:36:34.458Z,17.42
2022-07-30T03:37:34.439Z,17.46
2022-07-30T03:38:34.429Z,17.44
2022-07-30T03:39:34.408Z,17.44
2022-07-30T03:40:34.427Z,17.46
2022-07-30T03:41:34.672Z,17.47
2022-07-30T03:42:34.403Z,17.46
2022-07-30T03:43:34.617Z,17.47
2022-07-30T03:44:34.446Z,17.46
2022-07-30T03:45:34.602Z,17.46
2022-07-30T03:46:34.452Z,17.46
2022-07-30T03:47:34.335Z,17.46
2022-07-30T03:48:34.440Z,17.49
2022-07-30T03:49:34.294Z,17.44
2022-07-30T03:50:34.253Z,17.46
2022-07-30T03:51:34.278Z,17.44
2022-07-30T03:52:34.307Z,17.46
2022-07-30T03:53:34.284Z,17.46
2022-07-30T03:54:34.438Z,17.47
2022-07-30T03:55:34.278Z,17.47
2022-07-30T03:56:34.198Z,17.46
2022-07-30T03:57:34.278Z,17.46
2022-07-30T03:58:36.153Z,17.47
2022-07-30T03:59:34.277Z,17.46
2022-07-30T04:00:34.120Z,17.44
2022-07-30T04:01:34.371Z,17.47
2022-07-30T04:02:34.125Z,17.47
2022-07-30T04:03:34.395Z,17.44
2022-07-30T04:04:34.181Z,17.44
2022-07-30T04:05:37.521Z,17.42
2022-07-30T04:06:34.174Z,17.47
2022-07-30T04:07:34.282Z,17.47
2022-07-30T04:08:34.083Z,17.49
2022-07-30T04:09:34.002Z,17.49
2022-07-30T04:10:34.119Z,17.47
2022-07-30T04:11:41.325Z,17.44
2022-07-30T04:12:34.019Z,17.39
2022-07-30T04:13:34.017Z,17.41
2022-07-30T04:14:33.949Z,17.41
2022-07-30T04:16:05.491Z,17.42
2022-07-30T04:16:45.504Z,17.42
2022-07-30T04:17:34.081Z,17.42
2022-07-30T04:18:33.978Z,17.41
2022-07-30T04:19:33.867Z,17.42
2022-07-30T04:20:33.868Z,17.42
2022-07-30T04:21:34.001Z,17.42
2022-07-30T04:22:34.142Z,17.42
2022-07-30T04:23:33.812Z,17.39
2022-07-30T04:24:33.912Z,17.38
2022-07-30T04:25:33.993Z,17.37
2022-07-30T04:26:33.847Z,17.37
2022-07-30T04:27:33.755Z,17.34
2022-07-30T04:28:33.803Z,17.31
2022-07-30T04:29:33.823Z,17.31
2022-07-30T04:30:33.834Z,17.32
2022-07-30T04:31:33.795Z,17.32
2022-07-30T04:32:33.849Z,17.32
2022-07-30T04:33:33.678Z,17.34
2022-07-30T04:34:33.827Z,17.34
2022-07-30T04:35:51.002Z,17.37
2022-07-30T04:36:33.805Z,17.39
2022-07-30T04:37:33.651Z,17.44
2022-07-30T04:38:33.618Z,17.49
2022-07-30T04:39:33.976Z,17.52
2022-07-30T04:40:33.568Z,17.53
2022-07-30T04:41:48.346Z,17.56
2022-07-30T04:42:33.548Z,17.56
2022-07-30T04:43:33.643Z,17.59
2022-07-30T04:44:33.804Z,17.66
2022-07-30T04:45:33.723Z,17.73
2022-07-30T04:46:33.857Z,17.75
2022-07-30T04:47:34.047Z,17.79
2022-07-30T04:48:33.483Z,17.82
2022-07-30T04:49:33.662Z,17.86
2022-07-30T04:50:33.824Z,17.86
2022-07-30T04:51:33.634Z,17.90
2022-07-30T04:52:33.504Z,17.86
2022-07-30T04:53:33.639Z,17.88
2022-07-30T04:54:33.508Z,17.86
2022-07-30T04:55:33.740Z,17.78
2022-07-30T04:56:33.499Z,17.75
2022-07-30T04:57:33.378Z,17.71
2022-07-30T04:58:33.478Z,17.68
2022-07-30T04:59:33.318Z,17.68
2022-07-30T05:00:36.635Z,17.66
2022-07-30T05:01:35.901Z,17.69
2022-07-30T05:02:33.467Z,17.66
2022-07-30T05:03:33.324Z,17.69
2022-07-30T05:04:33.493Z,17.66
2022-07-30T05:05:33.474Z,17.68
2022-07-30T05:06:33.545Z,17.66
2022-07-30T05:07:33.345Z,17.68
2022-07-30T05:08:33.195Z,17.68
2022-07-30T05:09:33.174Z,17.69
2022-07-30T05:10:33.213Z,17.69
2022-07-30T05:11:33.143Z,17.72
2022-07-30T05:12:33.133Z,17.73
2022-07-30T05:13:34.383Z,17.75
2022-07-30T05:14:33.149Z,17.73
2022-07-30T05:15:36.109Z,17.69
2022-07-30T05:16:33.189Z,17.71
2022-07-30T05:17:33.078Z,17.72
2022-07-30T05:18:33.058Z,17.75
2022-07-30T05:19:33.047Z,17.75
2022-07-30T05:20:33.158Z,17.79
2022-07-30T05:21:33.088Z,17.79
2022-07-30T05:22:33.158Z,17.82
2022-07-30T05:23:32.978Z,17.84
2022-07-30T05:24:32.983Z,17.84
2022-07-30T05:25:32.963Z,17.84
2022-07-30T05:26:32.973Z,17.86
2022-07-30T05:27:32.993Z,17.87
2022-07-30T05:28:32.913Z,17.86
2022-07-30T05:29:33.014Z,17.88
2022-07-30T05:30:32.894Z,17.88
2022-07-30T05:31:33.032Z,17.93
2022-07-30T05:32:32.862Z,17.94
2022-07-30T05:33:38.813Z,17.90
2022-07-30T05:34:32.851Z,17.88
2022-07-30T05:35:32.998Z,17.91
2022-07-30T05:36:32.840Z,17.94
2022-07-30T05:37:32.811Z,17.97
2022-07-30T05:38:32.898Z,18.02
2022-07-30T05:39:32.998Z,18.03
2022-07-30T05:40:32.838Z,18.05
2022-07-30T05:41:33.455Z,18.09
2022-07-30T05:42:32.838Z,18.09
2022-07-30T05:43:33.067Z,18.09
2022-07-30T05:44:32.714Z,18.11
2022-07-30T05:45:32.683Z,18.09
2022-07-30T05:46:32.734Z,18.09
2022-07-30T05:47:32.684Z,18.08
2022-07-30T05:48:32.845Z,18.06
2022-07-30T05:49:32.774Z,18.03
2022-07-30T05:50:32.662Z,17.98
2022-07-30T05:51:32.602Z,17.95
2022-07-30T05:52:32.583Z,17.94
2022-07-30T05:53:32.684Z,17.94
2022-07-30T05:54:32.678Z,17.93
2022-07-30T05:55:32.688Z,17.93
2022-07-30T05:56:32.547Z,17.95
2022-07-30T05:57:32.689Z,17.95
2022-07-30T05:58:32.519Z,17.94
2022-07-30T05:59:32.504Z,17.95
2022-07-30T06:00:32.579Z,18.00
2022-07-30T06:01:32.808Z,18.02
2022-07-30T06:02:32.520Z,18.03
2022-07-30T06:03:32.439Z,18.03
2022-07-30T06:04:32.697Z,18.03
2022-07-30T06:05:32.434Z,18.03
2022-07-30T06:06:32.514Z,17.98
2022-07-30T06:07:32.413Z,17.98
2022-07-30T06:08:32.534Z,18.00
2022-07-30T06:09:36.984Z,18.00
2022-07-30T06:10:32.593Z,18.02
2022-07-30T06:11:32.364Z,18.05
2022-07-30T06:12:32.504Z,18.06
2022-07-30T06:13:32.353Z,18.09
2022-07-30T06:14:32.515Z,18.11
2022-07-30T06:15:32.478Z,18.18
2022-07-30T06:16:32.550Z,18.23
2022-07-30T06:17:32.358Z,18.28
2022-07-30T06:18:32.258Z,18.31
2022-07-30T06:19:32.230Z,18.31
2022-07-30T06:20:32.278Z,18.39
2022-07-30T06:22:05.424Z,18.42
2022-07-30T06:22:32.200Z,18.42
2022-07-30T06:23:32.180Z,18.42
2022-07-30T06:24:32.159Z,18.43
2022-07-30T06:25:32.224Z,18.45
2022-07-30T06:26:32.214Z,18.46
2022-07-30T06:27:35.507Z,18.52
2022-07-30T06:28:38.170Z,18.55
2022-07-30T06:29:32.114Z,18.63
2022-07-30T06:30:32.155Z,18.68
2022-07-30T06:31:32.165Z,18.71
2022-07-30T06:32:32.205Z,18.70
2022-07-30T06:33:32.044Z,18.76
2022-07-30T06:34:32.026Z,18.82
2022-07-30T06:35:32.124Z,18.86
2022-07-30T06:36:32.009Z,18.88
2022-07-30T06:38:05.573Z,18.86
2022-07-30T06:38:32.203Z,18.89
2022-07-30T06:39:56.035Z,18.91
2022-07-30T06:40:32.201Z,18.92
2022-07-30T06:41:32.098Z,18.86
2022-07-30T06:42:31.909Z,18.89
2022-07-30T06:43:32.038Z,18.92
2022-07-30T06:44:31.878Z,18.92
2022-07-30T06:45:31.889Z,18.94
2022-07-30T06:46:31.985Z,18.92
2022-07-30T06:47:32.043Z,18.92
2022-07-30T06:48:31.883Z,18.96
2022-07-30T06:49:32.045Z,19.00
2022-07-30T06:50:31.883Z,19.05
2022-07-30T06:51:31.854Z,19.09
2022-07-30T06:52:31.864Z,19.15
2022-07-30T06:53:32.033Z,19.12
2022-07-30T06:54:31.894Z,19.19
2022-07-30T06:55:31.745Z,19.17
2022-07-30T06:56:31.948Z,19.16
2022-07-30T06:57:31.719Z,19.15
2022-07-30T06:58:31.880Z,19.16
2022-07-30T06:59:31.719Z,19.16
2022-07-30T07:00:31.878Z,19.22
2022-07-30T07:01:31.850Z,19.24
2022-07-30T07:02:31.869Z,19.29
2022-07-30T07:03:39.664Z,19.32
2022-07-30T07:04:31.645Z,19.35
2022-07-30T07:05:31.713Z,19.38
2022-07-30T07:06:31.594Z,19.41
2022-07-30T07:07:41.992Z,19.45
2022-07-30T07:08:31.575Z,19.45
2022-07-30T07:09:31.556Z,19.42
2022-07-30T07:10:31.534Z,19.37
2022-07-30T07:11:31.724Z,19.32
2022-07-30T07:12:31.624Z,19.32
2022-07-30T07:13:31.704Z,19.34
2022-07-30T07:14:31.556Z,19.35
2022-07-30T07:15:37.253Z,19.37
2022-07-30T07:16:31.637Z,19.34
2022-07-30T07:17:31.559Z,19.37
2022-07-30T07:18:31.562Z,19.41
2022-07-30T07:19:59.766Z,19.39
2022-07-30T07:20:31.408Z,19.38
2022-07-30T07:21:31.389Z,19.39
2022-07-30T07:22:31.551Z,19.38
2022-07-30T07:23:39.857Z,19.41
2022-07-30T07:24:31.551Z,19.45
2022-07-30T07:25:31.338Z,19.42
2022-07-30T07:26:31.564Z,19.45
2022-07-30T07:27:31.313Z,19.45
2022-07-30T07:28:33.499Z,19.49
2022-07-30T07:29:31.284Z,19.53
2022-07-30T07:30:31.312Z,19.59
2022-07-30T07:32:06.326Z,19.66
2022-07-30T07:32:31.243Z,19.72
2022-07-30T07:33:31.294Z,19.77
2022-07-30T07:34:31.204Z,19.78
2022-07-30T07:35:31.193Z,19.79
2022-07-30T07:36:31.239Z,19.82
2022-07-30T07:37:31.179Z,19.87
2022-07-30T07:38:31.220Z,19.92
2022-07-30T07:39:31.398Z,19.94
2022-07-30T07:40:31.239Z,20.00
2022-07-30T07:41:31.109Z,20.07
2022-07-30T07:42:31.109Z,20.12
2022-07-30T07:43:31.151Z,20.17
2022-07-30T07:44:31.079Z,20.19
2022-07-30T07:45:31.079Z,20.21
2022-07-30T07:46:33.670Z,20.21
2022-07-30T07:47:31.087Z,20.22
2022-07-30T07:48:31.107Z,20.27
2022-07-30T07:49:31.094Z,20.30
2022-07-30T07:50:31.004Z,20.36
2022-07-30T07:51:47.458Z,20.44
2022-07-30T07:52:30.974Z,20.55
2022-07-30T07:53:31.144Z,20.58
2022-07-30T07:54:30.974Z,20.55
2022-07-30T07:55:31.094Z,20.55
2022-07-30T07:56:30.939Z,20.64
2022-07-30T07:57:31.078Z,20.68
2022-07-30T07:58:31.100Z,20.75
2022-07-30T07:59:40.392Z,20.82
2022-07-30T08:00:30.919Z,20.86
2022-07-30T08:01:31.153Z,21.03
2022-07-30T08:02:30.853Z,21.01
2022-07-30T08:03:30.870Z,21.14
2022-07-30T08:04:30.788Z,21.22
2022-07-30T08:05:56.890Z,21.40
2022-07-30T08:06:30.934Z,21.51
2022-07-30T08:07:30.764Z,21.70
2022-07-30T08:08:30.935Z,21.91
2022-07-30T08:09:43.631Z,21.96
2022-07-30T08:10:30.924Z,21.97
2022-07-30T08:11:30.763Z,21.84
2022-07-30T08:12:30.925Z,21.78
2022-07-30T08:13:51.681Z,21.81
2022-07-30T08:14:30.773Z,21.88
2022-07-30T08:15:30.754Z,21.91
2022-07-30T08:16:30.729Z,21.94
2022-07-30T08:17:30.759Z,21.92
2022-07-30T08:18:30.618Z,21.97
2022-07-30T08:19:30.834Z,22.01
2022-07-30T08:20:33.502Z,21.91
2022-07-30T08:21:30.748Z,21.96
2022-07-30T08:22:30.598Z,22.00
2022-07-30T08:23:30.538Z,21.99
2022-07-30T08:24:30.598Z,22.04
2022-07-30T08:25:30.830Z,22.18
2022-07-30T08:26:30.512Z,22.25
2022-07-30T08:27:30.514Z,22.30
2022-07-30T08:28:36.176Z,22.36
2022-07-30T08:29:30.473Z,22.36
2022-07-30T08:30:30.510Z,22.26
2022-07-30T08:31:30.513Z,22.23
2022-07-30T08:32:30.442Z,22.21
2022-07-30T08:33:30.429Z,22.06
2022-07-30T08:34:30.396Z,22.10
2022-07-30T08:35:30.449Z,21.99
2022-07-30T08:36:30.461Z,22.01
2022-07-30T08:37:30.438Z,21.96
2022-07-30T08:38:30.349Z,21.99
2022-07-30T08:39:30.440Z,21.94
2022-07-30T08:40:30.328Z,21.89
2022-07-30T08:41:30.449Z,21.81
2022-07-30T08:42:30.352Z,21.72
2022-07-30T08:43:30.269Z,21.75
2022-07-30T08:44:30.279Z,21.80
2022-07-30T08:45:34.768Z,21.84
2022-07-30T08:46:30.294Z,21.97
2022-07-30T08:47:30.293Z,22.07
2022-07-30T08:48:30.283Z,22.12
2022-07-30T08:49:30.223Z,22.22
2022-07-30T08:50:30.294Z,22.03
2022-07-30T08:51:30.164Z,22.00
2022-07-30T08:52:30.353Z,21.92
2022-07-30T08:53:30.183Z,21.94
2022-07-30T08:54:30.294Z,22.03
2022-07-30T08:55:30.130Z,21.99
2022-07-30T08:56:30.118Z,21.74
2022-07-30T08:57:30.189Z,21.60
2022-07-30T08:58:30.093Z,21.58
2022-07-30T08:59:59.500Z,21.59
2022-07-30T09:00:30.049Z,21.56
2022-07-30T09:01:30.118Z,21.54
2022-07-30T09:02:30.078Z,21.51
2022-07-30T09:03:30.126Z,21.56
2022-07-30T09:04:30.012Z,21.56
2022-07-30T09:05:30.127Z,21.58
2022-07-30T09:06:29.978Z,21.47
2022-07-30T09:07:30.204Z,21.38
2022-07-30T09:08:29.966Z,21.37
2022-07-30T09:09:30.124Z,21.30
2022-07-30T09:10:29.944Z,21.23
2022-07-30T09:11:29.915Z,21.28
2022-07-30T09:12:30.024Z,21.33
2022-07-30T09:13:29.896Z,21.37
2022-07-30T09:14:30.697Z,21.47
2022-07-30T09:15:29.859Z,21.53
2022-07-30T09:16:29.968Z,21.70
2022-07-30T09:17:32.753Z,21.88
2022-07-30T09:18:29.879Z,21.97
2022-07-30T09:19:29.789Z,22.10
2022-07-30T09:20:29.791Z,22.08
2022-07-30T09:21:29.794Z,22.16
2022-07-30T09:22:29.753Z,22.19
2022-07-30T09:23:30.016Z,22.18
2022-07-30T09:24:29.953Z,22.28
2022-07-30T09:25:29.744Z,22.19
2022-07-30T09:26:29.727Z,22.18
2022-07-30T09:27:29.819Z,22.31
2022-07-30T09:28:30.043Z,22.43
2022-07-30T09:29:29.803Z,22.77
2022-07-30T09:30:32.396Z,22.80
2022-07-30T09:32:29.624Z,22.78
2022-07-30T09:33:29.689Z,22.84
2022-07-30T09:34:29.647Z,22.95
2022-07-30T09:35:29.607Z,22.92
2022-07-30T09:36:29.567Z,23.16
2022-07-30T09:37:29.570Z,23.11
2022-07-30T09:38:29.630Z,23.20
2022-07-30T09:39:29.799Z,23.40
2022-07-30T09:40:32.393Z,23.48
2022-07-30T09:41:38.689Z,23.44
2022-07-30T09:42:29.507Z,23.39
2022-07-30T09:43:29.483Z,23.51
2022-07-30T09:44:29.543Z,23.47
2022-07-30T09:45:34.937Z,23.44
2022-07-30T09:46:29.484Z,23.51
2022-07-30T09:47:29.496Z,23.66
2022-07-30T09:48:29.421Z,23.73
2022-07-30T09:49:29.850Z,23.76
2022-07-30T09:50:30.933Z,23.84
2022-07-30T09:51:55.982Z,24.00
2022-07-30T09:52:29.681Z,23.86
2022-07-30T09:53:29.477Z,23.77
2022-07-30T09:54:29.418Z,23.82
2022-07-30T09:55:29.488Z,24.06
2022-07-30T09:56:30.142Z,24.44
2022-07-30T09:57:29.479Z,24.81
2022-07-30T09:58:29.317Z,25.07
2022-07-30T09:59:34.739Z,25.06
2022-07-30T10:00:29.377Z,24.97
2022-07-30T10:01:49.483Z,24.96
2022-07-30T10:02:29.332Z,24.81
2022-07-30T10:03:33.843Z,24.51
2022-07-30T10:04:29.246Z,24.31
2022-07-30T10:05:29.554Z,24.09
2022-07-30T10:06:29.175Z,23.95
2022-07-30T10:07:29.163Z,23.79
2022-07-30T10:08:29.154Z,23.55
2022-07-30T10:09:29.154Z,23.49
2022-07-30T10:10:29.386Z,23.63
2022-07-30T10:11:31.071Z,23.62
2022-07-30T10:12:29.317Z,23.54
2022-07-30T10:13:32.446Z,23.56
2022-07-30T10:14:30.757Z,23.64
2022-07-30T10:15:29.238Z,23.71
2022-07-30T10:16:29.617Z,23.56
2022-07-30T10:17:29.157Z,23.66
2022-07-30T10:18:29.006Z,23.77
2022-07-30T10:19:39.968Z,24.00
2022-07-30T10:20:29.052Z,24.19
2022-07-30T10:21:29.027Z,24.48
2022-07-30T10:22:29.417Z,24.77
2022-07-30T10:23:29.166Z,24.94
2022-07-30T10:24:29.010Z,25.11
2022-07-30T10:25:29.173Z,25.19
2022-07-30T10:26:29.011Z,25.29
2022-07-30T10:27:29.232Z,25.15
2022-07-30T10:28:28.867Z,25.04
2022-07-30T10:29:33.981Z,25.07
2022-07-30T10:30:29.369Z,25.01
2022-07-30T10:31:47.978Z,25.26
2022-07-30T10:32:30.850Z,25.43
2022-07-30T10:33:34.866Z,25.44
2022-07-30T10:34:32.619Z,25.51
2022-07-30T10:35:35.010Z,25.67
2022-07-30T10:36:28.777Z,25.85
2022-07-30T10:37:28.828Z,26.07
2022-07-30T10:38:28.799Z,26.88
2022-07-30T10:39:28.855Z,26.88
2022-07-30T10:40:30.843Z,26.79
2022-07-30T10:41:47.371Z,26.59
2022-07-30T10:42:28.711Z,26.44
2022-07-30T10:43:31.802Z,26.39
2022-07-30T10:44:28.684Z,26.48
2022-07-30T10:45:28.643Z,26.92
2022-07-30T10:46:28.677Z,26.49
2022-07-30T10:47:33.513Z,26.07
2022-07-30T10:48:28.798Z,25.71
2022-07-30T10:49:28.890Z,25.92
2022-07-30T10:50:28.678Z,25.89
2022-07-30T10:51:34.660Z,25.37
2022-07-30T10:52:28.687Z,25.43
2022-07-30T10:53:28.639Z,26.24
2022-07-30T10:54:28.607Z,27.33
2022-07-30T10:55:37.106Z,27.57
2022-07-30T10:56:28.938Z,27.30
2022-07-30T10:57:32.635Z,26.92
2022-07-30T10:58:28.503Z,26.85
2022-07-30T10:59:29.101Z,26.46
2022-07-30T11:00:28.467Z,27.13
2022-07-30T11:01:30.490Z,27.30
2022-07-30T11:02:28.412Z,27.23
2022-07-30T11:03:40.365Z,27.91
2022-07-30T11:04:29.567Z,28.49
2022-07-30T11:05:45.430Z,28.20
2022-07-30T11:06:28.385Z,28.20
2022-07-30T11:07:28.539Z,27.88
2022-07-30T11:08:32.047Z,28.23
2022-07-30T11:09:28.368Z,27.82
2022-07-30T11:10:28.427Z,28.25
2022-07-30T11:11:59.429Z,28.45
2022-07-30T11:12:28.358Z,28.87
2022-07-30T11:13:28.517Z,29.28
2022-07-30T11:14:28.378Z,29.53
2022-07-30T11:15:28.613Z,29.62
2022-07-30T11:16:28.373Z,29.40
2022-07-30T11:17:28.274Z,28.90
2022-07-30T11:18:28.652Z,28.09
2022-07-30T11:19:54.905Z,27.28
2022-07-30T11:20:28.282Z,26.49
2022-07-30T11:21:28.194Z,25.93
2022-07-30T11:22:28.153Z,25.43
2022-07-30T11:23:28.207Z,24.99
2022-07-30T11:24:28.353Z,24.62
2022-07-30T11:25:50.612Z,24.44
2022-07-30T11:26:28.427Z,24.28
2022-07-30T11:27:28.197Z,24.16
2022-07-30T11:28:28.078Z,24.13
2022-07-30T11:29:33.088Z,24.10
2022-07-30T11:30:28.389Z,24.18
2022-07-30T11:31:30.665Z,24.58
2022-07-30T11:32:28.022Z,24.79
2022-07-30T11:33:32.835Z,25.00
2022-07-30T11:34:28.042Z,25.19
2022-07-30T11:35:34.733Z,25.37
2022-07-30T11:36:28.033Z,25.36
2022-07-30T11:37:32.232Z,25.25
2022-07-30T11:38:27.933Z,25.36
2022-07-30T11:39:29.815Z,25.88
2022-07-30T11:40:27.917Z,26.16
2022-07-30T11:41:27.894Z,26.74
2022-07-30T11:42:27.947Z,27.07
2022-07-30T11:43:36.057Z,26.92
2022-07-30T11:44:27.877Z,26.68
2022-07-30T11:45:27.869Z,26.64
2022-07-30T11:46:29.223Z,26.55
2022-07-30T11:47:27.826Z,26.36
2022-07-30T11:48:27.858Z,25.92
2022-07-30T11:49:27.996Z,25.62
2022-07-30T11:50:27.785Z,25.49
2022-07-30T11:51:27.760Z,25.37
2022-07-30T11:52:27.833Z,25.51
2022-07-30T11:53:27.744Z,25.99
2022-07-30T11:54:27.733Z,27.08
2022-07-30T11:55:27.721Z,27.98
2022-07-30T11:56:27.722Z,27.72
2022-07-30T11:57:27.943Z,27.08
2022-07-30T11:58:27.725Z,26.81
2022-07-30T11:59:27.652Z,27.55
2022-07-30T12:00:27.712Z,27.91
2022-07-30T12:01:27.886Z,28.19
2022-07-30T12:02:27.719Z,27.52
2022-07-30T12:03:29.902Z,26.88
2022-07-30T12:04:27.718Z,26.37
2022-07-30T12:05:27.617Z,25.81
2022-07-30T12:06:27.587Z,25.34
2022-07-30T12:07:27.627Z,24.94
2022-07-30T12:08:35.160Z,24.58
2022-07-30T12:09:27.753Z,24.14
2022-07-30T12:10:27.983Z,23.59
2022-07-30T12:11:27.562Z,23.20
2022-07-30T12:12:27.792Z,22.95
2022-07-30T12:13:43.886Z,22.78
2022-07-30T12:14:27.472Z,22.74
2022-07-30T12:15:27.564Z,23.07
2022-07-30T12:16:27.444Z,23.52
2022-07-30T12:17:27.622Z,23.67
2022-07-30T12:18:27.421Z,23.88
2022-07-30T12:19:27.552Z,24.06
2022-07-30T12:20:27.397Z,24.21
2022-07-30T12:21:27.558Z,24.40
2022-07-30T12:22:27.457Z,24.50
2022-07-30T12:23:27.557Z,24.50
2022-07-30T12:24:27.399Z,24.43
2022-07-30T12:25:27.569Z,24.26
2022-07-30T12:26:27.477Z,24.40
2022-07-30T12:27:27.337Z,24.36
2022-07-30T12:28:27.406Z,24.43
2022-07-30T12:29:27.564Z,24.58
2022-07-30T12:30:27.402Z,24.66
2022-07-30T12:31:27.223Z,24.69
2022-07-30T12:32:27.473Z,24.55
2022-07-30T12:33:27.239Z,24.36
2022-07-30T12:34:27.402Z,23.95
2022-07-30T12:35:27.232Z,23.63
2022-07-30T12:36:27.382Z,23.26
2022-07-30T12:37:27.292Z,23.20
2022-07-30T12:38:27.148Z,23.02
2022-07-30T12:39:27.248Z,22.53
2022-07-30T12:40:27.108Z,22.10
2022-07-30T12:41:27.097Z,21.48
2022-07-30T12:42:27.150Z,21.17
2022-07-30T12:43:27.227Z,21.01
2022-07-30T12:44:27.058Z,21.01
2022-07-30T12:45:27.037Z,21.19
2022-07-30T12:46:27.017Z,21.26
2022-07-30T12:47:27.107Z,21.45
2022-07-30T12:48:27.081Z,21.58
2022-07-30T12:49:27.284Z,21.65
2022-07-30T12:50:26.976Z,21.54
2022-07-30T12:51:27.242Z,21.59
2022-07-30T12:52:27.846Z,21.62
2022-07-30T12:53:26.983Z,21.60